Time;durP1;ratioP1;P1;durP2;ratioP2;P2;SDS_P1;SDS_P2;PMS_P1;PMS_P2;Temp;Humidity;BMP_temperature;BMP_pressure;BME280_temperature;BME280_humidity;BME280_pressure;Samples;Min_cycle;Max_cycle;Signal;HPM_P1;HPM_P2
2022/06/15 00:01:55;;;;;;;4.63;2.15;;;;;;;15.38;95.77;98796.31;4993170;28;20472;-68
2022/06/15 00:04:21;;;;;;;4.15;2.65;;;;;;;15.51;95.55;98800.69;4990210;28;20046;-68
2022/06/15 00:06:46;;;;;;;4.88;2.33;;;;;;;15.46;96.90;98808.75;4981834;28;20030;-68
2022/06/15 00:09:11;;;;;;;4.43;2.40;;;;;;;15.30;99.18;98800.19;4988938;28;20026;-68
2022/06/15 00:11:40;;;;;;;7.45;2.53;;;;;;;15.30;100.00;98807.53;4994213;28;20034;-68
2022/06/15 00:14:15;;;;;;;4.88;2.30;;;;;;;15.21;100.00;98812.50;4990223;28;20049;-68
2022/06/15 00:16:41;;;;;;;4.15;2.55;;;;;;;15.11;100.00;98807.59;4987521;28;20062;-68
2022/06/15 00:19:07;;;;;;;4.95;2.30;;;;;;;14.95;100.00;98788.38;4990397;28;20054;-69
2022/06/15 00:21:32;;;;;;;8.25;2.70;;;;;;;15.00;100.00;98804.84;4989634;28;20030;-68
2022/06/15 00:23:58;;;;;;;4.07;2.88;;;;;;;14.99;100.00;98809.47;4990351;28;20112;-68
2022/06/15 00:26:24;;;;;;;6.22;2.85;;;;;;;14.93;100.00;98804.09;4989519;28;20109;-68
2022/06/15 00:28:51;;;;;;;5.57;2.95;;;;;;;14.87;100.00;98811.31;4986847;28;20022;-68
2022/06/15 00:31:17;;;;;;;3.97;2.40;;;;;;;14.83;100.00;98815.59;4981815;28;20105;-68
2022/06/15 00:33:43;;;;;;;7.35;2.40;;;;;;;14.82;100.00;98820.16;4986365;28;20142;-68
2022/06/15 00:36:12;;;;;;;3.88;2.30;;;;;;;14.83;100.00;98812.84;4986937;28;20133;-68
2022/06/15 00:38:49;;;;;;;6.60;2.53;;;;;;;14.88;100.00;98807.53;4989289;28;20029;-68
2022/06/15 00:41:18;;;;;;;4.65;2.50;;;;;;;14.95;100.00;98816.44;4989201;28;20038;-68
2022/06/15 00:43:51;;;;;;;4.63;3.33;;;;;;;15.05;100.00;98805.00;4986383;28;20030;-68
2022/06/15 00:46:37;;;;;;;6.15;3.53;;;;;;;15.05;100.00;98808.53;4982194;28;20539;-68
2022/06/15 00:49:22;;;;;;;7.35;3.25;;;;;;;14.93;100.00;98796.75;4986184;28;20034;-68
2022/06/15 00:51:51;;;;;;;8.20;3.72;;;;;;;14.97;100.00;98811.59;4987919;28;20121;-68
2022/06/15 00:54:17;;;;;;;;;;;;;;;14.91;100.00;98801.63;4990368;28;20050;-68
2022/06/15 00:56:43;;;;;;;9.75;3.92;;;;;;;14.72;100.00;98787.22;4988778;28;19921;-68
2022/06/15 00:59:22;;;;;;;5.82;3.55;;;;;;;14.68;100.00;98796.91;4986986;28;20038;-68
2022/06/15 01:01:47;;;;;;;7.40;3.67;;;;;;;14.61;100.00;98791.53;4986411;28;20388;-68
2022/06/15 01:04:13;;;;;;;6.40;3.85;;;;;;;14.52;100.00;98787.47;4991032;28;20093;-68
2022/06/15 01:06:49;;;;;;;6.85;4.28;;;;;;;14.37;100.00;98787.84;4986366;28;20068;-68
2022/06/15 01:09:22;;;;;;;6.72;4.20;;;;;;;14.27;100.00;98790.28;4988654;28;20032;-68
2022/06/15 01:12:15;;;;;;;11.32;4.70;;;;;;;14.23;100.00;98778.19;4987753;28;20026;-68
2022/06/15 01:14:55;;;;;;;6.35;3.85;;;;;;;14.17;100.00;98782.66;4983359;28;20030;-68
2022/06/15 01:17:43;;;;;;;6.05;3.70;;;;;;;14.14;100.00;98780.38;4985063;28;20030;-68
2022/06/15 01:20:26;;;;;;;7.03;4.15;;;;;;;14.17;100.00;98784.53;4981346;28;20034;-68
2022/06/15 01:23:16;;;;;;;9.80;4.85;;;;;;;13.98;100.00;98759.22;4988323;28;20034;-68
2022/06/15 01:25:47;;;;;;;9.57;4.20;;;;;;;14.07;100.00;98768.75;4985180;28;20048;-68
2022/06/15 01:28:19;;;;;;;6.80;4.13;;;;;;;13.97;100.00;98763.84;4986634;28;20158;-69
2022/06/15 01:31:09;;;;;;;6.07;3.90;;;;;;;13.95;100.00;98765.13;4983638;28;20049;-68
2022/06/15 01:33:59;;;;;;;7.03;4.03;;;;;;;13.88;100.00;98761.63;4990243;28;20385;-68
2022/06/15 01:36:36;;;;;;;4.97;3.80;;;;;;;13.93;100.00;98746.28;4984709;28;20034;-68
2022/06/15 01:39:08;;;;;;;10.68;4.10;;;;;;;14.09;100.00;98757.63;4986533;28;20092;-68
2022/06/15 01:41:44;;;;;;;4.70;3.58;;;;;;;13.92;100.00;98732.94;4979517;28;20045;-68
2022/06/15 01:44:24;;;;;;;5.35;3.50;;;;;;;13.88;100.00;98753.47;4986010;28;20018;-68
2022/06/15 01:46:50;;;;;;;9.75;3.95;;;;;;;13.80;100.00;98760.88;4983528;28;20643;-68
2022/06/15 01:49:41;;;;;;;6.40;3.60;;;;;;;13.82;100.00;98772.34;4989281;28;20036;-68
2022/06/15 01:52:09;;;;;;;5.25;3.58;;;;;;;13.70;100.00;98763.28;4986835;28;20385;-68
2022/06/15 01:54:42;;;;;;;5.78;3.00;;;;;;;13.42;100.00;98754.78;4989748;28;20129;-68
2022/06/15 01:57:09;;;;;;;9.05;3.20;;;;;;;13.23;100.00;98735.69;4987373;28;20032;-68
2022/06/15 01:59:45;;;;;;;6.95;3.03;;;;;;;13.27;100.00;98758.66;4985776;28;20026;-68
2022/06/15 02:02:47;;;;;;;10.23;3.42;;;;;;;13.35;100.00;98750.22;4979374;28;20044;-68
2022/06/15 02:05:25;;;;;;;4.70;2.97;;;;;;;13.35;100.00;98758.38;4979192;28;20510;-68
2022/06/15 02:07:54;;;;;;;4.40;2.85;;;;;;;13.43;100.00;98759.16;4972488;28;20698;-68
2022/06/15 02:10:26;;;;;;;5.47;3.40;;;;;;;13.45;100.00;98747.00;4985326;28;20395;-68
2022/06/15 02:12:59;;;;;;;4.25;2.85;;;;;;;13.61;100.00;98764.63;4979277;28;21923;-69
2022/06/15 02:15:28;;;;;;;5.35;2.88;;;;;;;13.64;100.00;98758.72;4985778;28;20049;-68
2022/06/15 02:17:58;;;;;;;5.28;3.08;;;;;;;13.68;100.00;98753.69;4984123;28;20058;-68
2022/06/15 02:20:28;;;;;;;4.75;2.75;;;;;;;13.64;100.00;98753.28;4982969;28;20452;-68
2022/06/15 02:22:57;;;;;;;6.85;3.00;;;;;;;13.61;100.00;98759.19;4985147;28;20057;-69
2022/06/15 02:25:27;;;;;;;4.75;2.83;;;;;;;13.56;100.00;98724.50;4989554;28;20030;-68
2022/06/15 02:27:53;;;;;;;6.03;2.75;;;;;;;13.70;100.00;98746.97;4988283;28;20057;-68
2022/06/15 02:30:23;;;;;;;5.40;2.58;;;;;;;13.73;100.00;98740.25;4985335;28;20622;-68
2022/06/15 02:32:49;;;;;;;4.50;2.67;;;;;;;13.71;100.00;98740.47;4985045;28;20395;-68
2022/06/15 02:35:17;;;;;;;4.75;2.85;;;;;;;13.64;100.00;98747.03;4985176;28;20026;-69
2022/06/15 02:37:44;;;;;;;4.40;2.72;;;;;;;13.53;100.00;98740.44;4983667;28;20626;-68
2022/06/15 02:40:13;;;;;;;7.22;2.90;;;;;;;13.45;100.00;98738.03;4981532;28;20057;-68
2022/06/15 02:42:40;;;;;;;3.55;2.50;;;;;;;13.21;100.00;98715.22;4984132;28;20085;-69
2022/06/15 02:45:13;;;;;;;6.78;2.92;;;;;;;13.30;100.00;98741.91;4981675;28;20038;-68
2022/06/15 02:47:41;;;;;;;8.75;2.85;;;;;;;13.27;100.00;98746.97;4983647;28;20034;-68
2022/06/15 02:50:08;;;;;;;5.80;2.90;;;;;;;13.27;100.00;98730.66;4989432;28;20073;-68
2022/06/15 02:52:43;;;;;;;7.68;2.58;;;;;;;13.31;100.00;98751.72;4985146;28;20046;-69
2022/06/15 02:55:10;;;;;;;7.25;2.40;;;;;;;13.29;100.00;98750.28;4993194;28;20030;-68
2022/06/15 02:57:49;;;;;;;9.02;2.83;;;;;;;13.24;100.00;98745.50;4999404;28;20057;-68
2022/06/15 03:00:16;;;;;;;4.38;2.72;;;;;;;13.15;100.00;98749.53;4991248;28;20022;-68
2022/06/15 03:02:41;;;;;;;7.57;3.22;;;;;;;13.10;100.00;98752.09;4993775;28;20030;-68
2022/06/15 03:05:07;;;;;;;7.47;3.30;;;;;;;13.05;100.00;98752.75;4996295;28;20096;-68
2022/06/15 03:07:32;;;;;;;6.32;3.08;;;;;;;12.98;100.00;98746.53;4997846;28;20149;-68
2022/06/15 03:09:58;;;;;;;5.35;2.92;;;;;;;12.92;100.00;98756.38;4995733;28;20049;-68
2022/06/15 03:12:23;;;;;;;8.73;3.15;;;;;;;12.91;100.00;98756.59;4989497;28;20089;-69
2022/06/15 03:14:48;;;;;;;5.07;2.78;;;;;;;12.90;100.00;98754.94;4985756;28;20060;-68
2022/06/15 03:17:14;;;;;;;4.82;3.20;;;;;;;12.96;100.00;98764.09;4986100;28;20033;-69
2022/06/15 03:19:39;;;;;;;6.22;3.28;;;;;;;12.89;100.00;98756.84;4985605;28;20481;-69
2022/06/15 03:22:05;;;;;;;6.82;3.28;;;;;;;12.96;100.00;98755.94;4976449;28;20041;-68
2022/06/15 03:24:30;;;;;;;9.73;3.72;;;;;;;13.15;100.00;98760.38;4981278;28;20030;-69
2022/06/15 03:26:55;;;;;;;7.57;3.67;;;;;;;13.03;100.00;98746.69;4984869;28;20026;-68
2022/06/15 03:29:21;;;;;;;6.15;3.67;;;;;;;12.96;100.00;98735.03;4987019;28;20093;-69
2022/06/15 03:31:46;;;;;;;5.13;3.58;;;;;;;13.18;100.00;98743.66;4979242;28;20416;-68
2022/06/15 03:34:12;;;;;;;7.28;3.65;;;;;;;13.07;100.00;98738.94;4987888;28;20072;-68
2022/06/15 03:36:37;;;;;;;6.10;3.60;;;;;;;13.01;100.00;98734.38;4986907;28;20034;-68
2022/06/15 03:39:02;;;;;;;7.40;4.10;;;;;;;12.99;100.00;98739.22;4983049;28;20054;-68
2022/06/15 03:41:28;;;;;;;5.60;3.80;;;;;;;12.89;100.00;98731.53;4983009;28;20030;-68
2022/06/15 03:43:54;;;;;;;7.82;3.53;;;;;;;12.88;100.00;98732.59;4985053;28;20893;-69
2022/06/15 03:46:19;;;;;;;4.68;3.50;;;;;;;12.94;100.00;98727.13;4985426;28;20038;-68
2022/06/15 03:48:45;;;;;;;8.60;3.83;;;;;;;12.74;100.00;98714.75;4988337;28;20030;-68
2022/06/15 03:51:10;;;;;;;7.05;3.50;;;;;;;12.88;100.00;98729.88;4981981;28;20045;-68
2022/06/15 03:53:35;;;;;;;9.57;3.72;;;;;;;12.64;100.00;98720.66;4986233;28;20037;-69
2022/06/15 03:56:00;;;;;;;7.93;3.30;;;;;;;12.55;100.00;98740.94;4984171;28;20034;-68
2022/06/15 03:58:26;;;;;;;5.03;3.13;;;;;;;12.59;100.00;98747.63;4986928;28;20034;-69
2022/06/15 04:00:51;;;;;;;7.88;3.20;;;;;;;12.46;100.00;98752.06;4987019;28;20069;-69
2022/06/15 04:03:17;;;;;;;7.38;3.60;;;;;;;12.39;100.00;98748.56;4987568;28;20435;-68
2022/06/15 04:05:45;;;;;;;11.23;3.25;;;;;;;12.42;100.00;98750.84;4981485;28;20026;-69
2022/06/15 04:08:34;;;;;;;8.43;3.70;;;;;;;12.48;100.00;98747.25;4983325;28;20030;-69
2022/06/15 04:10:59;;;;;;;;;;;;;;;12.60;100.00;98760.13;4985977;28;20487;-69
2022/06/15 04:13:26;;;;;;;4.65;3.42;;;;;;;12.74;100.00;98753.59;4981108;28;19922;-72
2022/06/15 04:15:52;;;;;;;6.05;3.67;;;;;;;12.88;100.00;98751.59;4976506;28;20034;-72
2022/06/15 04:18:18;;;;;;;7.25;3.50;;;;;;;13.14;100.00;98745.97;4976953;28;21105;-73
2022/06/15 04:20:43;;;;;;;10.02;3.95;;;;;;;13.32;100.00;98766.97;4983281;28;20037;-73
2022/06/15 04:23:12;;;;;;;8.52;4.18;;;;;;;13.47;100.00;98763.94;4987738;28;20450;-72
2022/06/15 04:25:44;;;;;;;7.32;3.47;;;;;;;13.76;100.00;98770.53;4983454;28;20627;-75
2022/06/15 04:28:11;;;;;;;5.20;3.50;;;;;;;13.81;100.00;98764.44;4988506;28;20026;-69
2022/06/15 04:30:37;;;;;;;5.40;3.40;;;;;;;13.87;100.00;98760.81;4983016;28;20026;-69
2022/06/15 04:33:03;;;;;;;6.53;3.67;;;;;;;13.94;100.00;98768.91;4985321;28;20177;-68
2022/06/15 04:35:29;;;;;;;8.40;4.38;;;;;;;13.95;100.00;98765.13;4989950;28;20443;-69
2022/06/15 04:37:54;;;;;;;8.02;4.63;;;;;;;14.08;100.00;98772.31;4993719;28;20456;-70
2022/06/15 04:40:20;;;;;;;7.78;4.18;;;;;;;14.22;100.00;98779.25;4987136;28;20026;-70
2022/06/15 04:42:46;;;;;;;6.60;3.95;;;;;;;14.31;100.00;98768.91;4989096;28;20084;-70
2022/06/15 04:45:13;;;;;;;12.05;4.55;;;;;;;14.34;100.00;98782.88;4993123;28;20149;-69
2022/06/15 04:47:39;;;;;;;6.00;3.83;;;;;;;14.49;100.00;98779.75;4975938;28;20038;-69
2022/06/15 04:50:06;;;;;;;9.82;4.03;;;;;;;14.59;100.00;98776.50;4982481;28;20038;-69
2022/06/15 04:52:32;;;;;;;6.63;3.80;;;;;;;14.68;100.00;98783.31;4986384;28;20034;-67
2022/06/15 04:54:57;;;;;;;7.32;4.03;;;;;;;14.76;100.00;98780.25;4987664;28;20167;-68
2022/06/15 04:57:23;;;;;;;7.90;4.05;;;;;;;14.82;100.00;98764.88;4989069;28;20073;-70
2022/06/15 04:59:48;;;;;;;6.40;4.13;;;;;;;15.03;100.00;98777.97;4988892;28;20041;-64
2022/06/15 05:02:14;;;;;;;6.82;3.88;;;;;;;15.25;100.00;98774.72;4989628;28;20030;-62
2022/06/15 05:04:39;;;;;;;5.13;3.50;;;;;;;15.33;100.00;98782.53;4989814;28;20022;-67
2022/06/15 05:07:06;;;;;;;6.68;3.80;;;;;;;15.46;100.00;98774.16;4979915;28;20049;-62
2022/06/15 05:09:31;;;;;;;5.75;3.42;;;;;;;15.65;100.00;98774.03;4982668;28;20058;-65
2022/06/15 05:11:56;;;;;;;6.60;4.18;;;;;;;15.88;100.00;98774.06;4979743;28;20471;-67
2022/06/15 05:14:22;;;;;;;10.18;3.88;;;;;;;15.94;100.00;98772.28;4983151;28;20453;-63
2022/06/15 05:16:47;;;;;;;8.02;4.22;;;;;;;16.07;100.00;98771.19;4988408;28;20059;-63
2022/06/15 05:19:12;;;;;;;12.05;4.53;;;;;;;16.14;100.00;98766.44;4987628;28;20097;-65
2022/06/15 05:21:43;;;;;;;6.38;4.35;;;;;;;16.34;100.00;98771.47;4989334;28;20163;-63
2022/06/15 05:24:09;;;;;;;6.93;3.97;;;;;;;16.47;100.00;98764.91;4990708;28;20028;-63
2022/06/15 05:26:35;;;;;;;10.35;4.22;;;;;;;16.60;100.00;98757.25;4986224;28;20026;-65
2022/06/15 05:29:00;;;;;;;9.25;4.18;;;;;;;16.77;100.00;98765.53;4982571;28;20018;-63
2022/06/15 05:31:26;;;;;;;5.80;3.58;;;;;;;17.05;98.04;98761.09;4984559;28;20027;-62
2022/06/15 05:33:54;;;;;;;8.88;3.80;;;;;;;17.22;93.06;98761.97;4987467;28;20242;-63
2022/06/15 05:36:22;;;;;;;10.27;4.00;;;;;;;17.38;93.85;98762.22;4991766;28;20027;-63
2022/06/15 05:38:48;;;;;;;7.18;3.72;;;;;;;17.65;92.13;98760.44;4981975;28;20384;-63
2022/06/15 05:41:13;;;;;;;6.45;3.67;;;;;;;17.90;89.23;98759.22;4987030;28;20052;-63
2022/06/15 05:43:44;;;;;;;8.10;3.38;;;;;;;18.07;90.49;98751.78;4985205;28;20436;-63
2022/06/15 05:46:23;;;;;;;6.50;4.07;;;;;;;18.23;85.89;98761.00;4981510;28;20035;-63
2022/06/15 05:48:48;;;;;;;6.53;3.10;;;;;;;18.48;82.18;98757.78;4986516;28;20619;-63
2022/06/15 05:51:13;;;;;;;6.68;3.50;;;;;;;18.49;79.67;98748.47;4986411;28;20037;-67
2022/06/15 05:53:39;;;;;;;3.72;2.88;;;;;;;18.60;79.51;98746.66;4982100;28;20045;-67
2022/06/15 05:56:04;;;;;;;4.85;2.80;;;;;;;18.82;78.06;98754.88;4989465;28;20031;-63
2022/06/15 05:58:29;;;;;;;7.65;3.17;;;;;;;18.88;77.91;98759.34;4989453;28;20038;-66
2022/06/15 06:00:55;;;;;;;6.03;3.20;;;;;;;18.89;78.10;98746.44;4986446;28;20064;-66
2022/06/15 06:03:20;;;;;;;6.47;2.83;;;;;;;19.22;76.23;98757.19;4989370;28;20509;-65
2022/06/15 06:05:45;;;;;;;5.22;2.63;;;;;;;19.37;76.30;98747.44;4986303;28;20030;-63
2022/06/15 06:08:10;;;;;;;5.38;3.17;;;;;;;19.52;76.65;98754.94;4983667;28;20034;-64
2022/06/15 06:10:36;;;;;;;6.60;3.10;;;;;;;19.60;77.78;98746.25;4982019;28;20215;-65
2022/06/15 06:13:01;;;;;;;4.43;2.78;;;;;;;19.62;76.84;98749.53;4981871;28;20039;-65
2022/06/15 06:15:27;;;;;;;4.18;2.40;;;;;;;19.89;74.75;98744.00;4982202;28;20030;-71
2022/06/15 06:17:52;;;;;;;6.07;3.20;;;;;;;20.12;73.68;98742.72;4979572;28;20034;-72
2022/06/15 06:20:17;;;;;;;5.90;3.25;;;;;;;20.38;72.43;98742.84;4977133;28;20026;-72
2022/06/15 06:22:44;;;;;;;5.68;2.90;;;;;;;20.60;68.88;98742.69;4985945;28;20030;-74
2022/06/15 06:25:10;;;;;;;7.47;3.00;;;;;;;20.87;64.90;98726.78;4989534;28;20052;-75
2022/06/15 06:27:36;;;;;;;8.13;2.80;;;;;;;21.09;62.77;98742.22;4991597;28;20491;-75
2022/06/15 06:30:01;;;;;;;4.15;2.33;;;;;;;21.43;59.05;98726.03;4982638;28;20018;-74
2022/06/15 06:32:26;;;;;;;6.88;3.20;;;;;;;21.67;59.74;98724.34;4993402;28;20460;-74
2022/06/15 06:34:55;;;;;;;8.38;3.00;;;;;;;21.74;58.96;98724.06;4988598;28;20060;-72
2022/06/15 06:37:21;;;;;;;5.07;2.75;;;;;;;22.02;59.86;98728.13;4989798;28;20022;-73
2022/06/15 06:39:49;;;;;;;3.63;2.60;;;;;;;22.48;57.06;98738.19;4989594;28;20503;-74
2022/06/15 06:42:14;;;;;;;5.57;2.63;;;;;;;22.83;53.22;98737.16;4989195;28;20031;-74
2022/06/15 06:44:39;;;;;;;5.22;2.72;;;;;;;23.15;53.00;98733.09;4987159;28;20045;-72
2022/06/15 06:47:07;;;;;;;5.38;2.40;;;;;;;23.94;50.68;98725.50;4984260;28;20527;-71
2022/06/15 06:49:33;;;;;;;5.00;2.38;;;;;;;24.42;47.13;98738.50;4980122;28;20310;-73
2022/06/15 06:51:59;;;;;;;6.47;2.38;;;;;;;24.91;45.33;98734.53;4976493;28;20512;-68
2022/06/15 06:54:24;;;;;;;6.53;2.50;;;;;;;25.19;44.52;98738.28;4989434;28;20026;-68
2022/06/15 06:56:50;;;;;;;6.85;2.30;;;;;;;25.64;43.48;98735.84;4990584;28;20401;-67
2022/06/15 06:59:17;;;;;;;4.70;2.40;;;;;;;26.08;42.04;98731.75;4986141;28;20030;-68
2022/06/15 07:01:45;;;;;;;5.40;1.75;;;;;;;27.27;39.60;98744.75;4985821;28;20108;-67
2022/06/15 07:04:11;;;;;;;6.22;2.17;;;;;;;27.83;38.71;98745.31;4989736;28;20048;-68
2022/06/15 07:06:37;;;;;;;4.28;2.10;;;;;;;29.34;36.57;98731.94;4986477;28;20029;-67
2022/06/15 07:09:03;;;;;;;3.53;2.17;;;;;;;30.63;33.92;98742.22;4986725;28;20121;-67
2022/06/15 07:11:28;;;;;;;6.40;1.95;;;;;;;31.76;31.57;98741.34;4985375;28;20057;-68
2022/06/15 07:13:54;;;;;;;2.92;2.05;;;;;;;32.48;30.54;98731.44;4988434;28;20129;-70
2022/06/15 07:16:20;;;;;;;3.47;2.47;;;;;;;33.26;29.20;98737.03;4989058;28;20027;-70
2022/06/15 07:18:46;;;;;;;3.05;2.17;;;;;;;34.03;28.29;98733.94;4989672;28;20044;-71
2022/06/15 07:21:20;;;;;;;4.05;2.20;;;;;;;34.83;27.28;98740.38;4983504;28;20034;-69
2022/06/15 07:23:49;;;;;;;4.35;2.10;;;;;;;34.09;27.31;98737.34;4988892;28;20531;-70
2022/06/15 07:26:21;;;;;;;4.35;2.13;;;;;;;35.27;26.75;98740.16;4990211;28;20026;-69
2022/06/15 07:28:47;;;;;;;3.80;2.03;;;;;;;35.63;26.43;98738.06;4986216;28;21021;-69
2022/06/15 07:31:26;;;;;;;4.95;1.92;;;;;;;36.94;24.40;98737.88;4987949;28;20270;-69
2022/06/15 07:33:52;;;;;;;4.45;2.13;;;;;;;36.49;25.02;98728.34;4985592;28;20031;-70
2022/06/15 07:36:18;;;;;;;4.32;1.77;;;;;;;37.14;25.29;98739.41;4986434;28;20053;-70
2022/06/15 07:38:44;;;;;;;4.03;1.90;;;;;;;37.40;23.92;98732.06;4994613;28;20479;-74
2022/06/15 07:41:09;;;;;;;3.22;1.85;;;;;;;37.71;23.43;98737.31;4995785;28;20030;-74
2022/06/15 07:43:35;;;;;;;3.78;1.90;;;;;;;37.28;23.55;98739.63;4989000;28;20026;-74
2022/06/15 07:46:00;;;;;;;2.40;1.73;;;;;;;37.78;23.23;98730.91;4988286;28;20031;-68
2022/06/15 07:51:28;;;;;;;2.50;1.40;;;;;;;38.75;22.77;98738.25;4994509;28;20042;-70
2022/06/15 07:53:53;;;;;;;3.45;1.65;;;;;;;38.19;23.67;98741.41;4983415;28;20031;-70
2022/06/15 07:56:19;;;;;;;3.70;1.70;;;;;;;38.43;23.28;98737.22;4995896;28;20414;-70
2022/06/15 07:58:45;;;;;;;5.05;2.03;;;;;;;38.15;23.04;98739.38;4990039;28;20735;-70
2022/06/15 08:01:10;;;;;;;3.90;1.80;;;;;;;39.68;21.33;98740.75;4996456;28;20026;-69
2022/06/15 08:03:37;;;;;;;5.18;1.90;;;;;;;37.57;23.30;98739.16;4994047;28;20398;-70
2022/06/15 08:06:03;;;;;;;3.35;2.00;;;;;;;38.23;22.90;98733.78;4998253;28;20041;-70
2022/06/15 08:08:29;;;;;;;5.63;1.90;;;;;;;38.02;22.94;98740.88;4999915;28;20034;-70
2022/06/15 08:10:54;;;;;;;4.60;1.52;;;;;;;38.88;22.37;98741.56;4995692;28;20464;-70
2022/06/15 08:13:19;;;;;;;5.30;1.90;;;;;;;36.71;24.10;98735.13;4983018;28;20038;-69
2022/06/15 08:15:47;;;;;;;3.15;1.80;;;;;;;38.17;23.01;98735.34;4980828;28;20026;-70
2022/06/15 08:18:19;;;;;;;6.23;1.70;;;;;;;38.32;22.89;98725.78;4990091;28;20053;-69
2022/06/15 08:20:49;;;;;;;2.92;1.60;;;;;;;40.25;21.14;98737.25;4993752;28;20307;-70
2022/06/15 08:23:18;;;;;;;3.00;1.75;;;;;;;37.98;23.74;98730.75;4998169;28;20030;-70
2022/06/15 08:25:48;;;;;;;3.85;2.00;;;;;;;37.70;23.33;98738.50;4995798;28;20036;-69
2022/06/15 08:28:18;;;;;;;2.60;1.85;;;;;;;39.87;21.34;98748.91;4999393;28;20033;-70
2022/06/15 08:30:45;;;;;;;2.63;1.50;;;;;;;39.91;20.78;98740.41;4987827;28;20065;-68
2022/06/15 08:33:10;;;;;;;4.68;1.75;;;;;;;38.61;22.02;98740.16;4981064;28;20034;-68
2022/06/15 08:35:37;;;;;;;5.38;1.65;;;;;;;37.55;23.90;98736.72;4985304;28;20049;-68
2022/06/15 08:38:07;;;;;;;3.50;1.80;;;;;;;35.98;24.85;98743.56;4989690;28;20172;-68
2022/06/15 08:40:44;;;;;;;2.97;1.70;;;;;;;37.73;23.52;98739.75;4980601;28;20030;-68
2022/06/15 08:43:52;;;;;;;6.07;1.80;;;;;;;37.54;23.62;98735.09;4987085;28;20022;-68
2022/06/15 08:46:36;;;;;;;5.13;1.70;;;;;;;39.53;22.65;98736.25;4958847;28;20804;-68
2022/06/15 08:49:21;;;;;;;5.22;1.77;;;;;;;38.74;23.21;98735.81;4979913;28;20030;-68
2022/06/15 08:51:55;;;;;;;3.53;1.70;;;;;;;39.60;21.95;98736.28;4988548;28;20034;-68
2022/06/15 08:54:27;;;;;;;5.00;1.88;;;;;;;38.72;22.63;98738.22;4985317;28;20045;-68
2022/06/15 08:57:05;;;;;;;4.60;1.80;;;;;;;37.85;22.95;98735.81;4991151;28;20032;-68
2022/06/15 08:59:45;;;;;;;4.22;1.95;;;;;;;37.02;24.05;98736.78;4986408;28;20038;-68
2022/06/15 09:02:24;;;;;;;4.72;1.73;;;;;;;38.12;22.76;98734.50;4986058;28;20183;-69
2022/06/15 09:05:26;;;;;;;4.03;1.65;;;;;;;38.02;23.56;98737.22;4985408;28;20026;-68
2022/06/15 09:08:11;;;;;;;4.28;1.73;;;;;;;36.80;24.02;98735.69;4973783;28;20046;-69
2022/06/15 09:10:44;;;;;;;5.60;1.70;;;;;;;38.84;22.41;98734.25;4982795;28;20042;-68
2022/06/15 09:13:25;;;;;;;3.78;1.60;;;;;;;39.22;21.98;98735.69;4982962;28;20144;-68
2022/06/15 09:15:59;;;;;;;2.88;1.50;;;;;;;37.88;23.05;98732.22;4978920;28;20397;-69
2022/06/15 09:18:50;;;;;;;2.42;1.60;;;;;;;38.70;21.93;98729.31;4981501;28;20033;-68
2022/06/15 09:21:24;;;;;;;2.35;1.40;;;;;;;39.79;20.87;98738.75;4980517;28;20104;-69
2022/06/15 09:23:57;;;;;;;3.72;1.58;;;;;;;40.09;21.66;98743.28;4988096;28;20045;-68
2022/06/15 09:26:31;;;;;;;3.35;2.00;;;;;;;40.16;21.16;98734.75;4985001;28;20411;-68
2022/06/15 09:29:08;;;;;;;5.75;1.70;;;;;;;38.04;22.55;98737.66;4982289;28;20054;-67
2022/06/15 09:31:49;;;;;;;3.13;1.70;;;;;;;39.00;22.14;98737.63;4978876;28;20037;-68
2022/06/15 09:34:23;;;;;;;6.28;1.73;;;;;;;39.31;22.32;98733.31;4985928;28;20034;-67
2022/06/15 09:36:55;;;;;;;3.85;1.38;;;;;;;39.16;21.70;98735.25;4978077;28;20034;-67
2022/06/15 09:39:21;;;;;;;2.15;1.30;;;;;;;39.37;21.85;98734.56;4984904;28;20105;-67
2022/06/15 09:41:55;;;;;;;4.03;1.50;;;;;;;39.13;21.88;98732.44;4986630;28;20037;-69
2022/06/15 09:44:44;;;;;;;3.08;1.55;;;;;;;38.44;21.95;98727.50;4981126;28;20042;-68
2022/06/15 09:47:33;;;;;;;6.80;1.60;;;;;;;37.57;23.08;98731.47;4980687;28;20077;-75
2022/06/15 09:50:07;;;;;;;3.28;1.60;;;;;;;38.25;22.45;98731.38;4984649;28;20141;-77
2022/06/15 09:52:56;;;;;;;3.58;1.52;;;;;;;38.29;22.07;98729.41;4985611;28;20030;-70
2022/06/15 09:55:35;;;;;;;4.95;1.80;;;;;;;37.95;22.45;98729.47;4987272;28;20022;-74
2022/06/15 09:58:02;;;;;;;4.55;1.63;;;;;;;38.55;22.25;98717.91;4987341;28;20057;-76
2022/06/15 10:00:28;;;;;;;4.88;1.30;;;;;;;39.93;22.04;98734.34;4984712;28;20027;-71
2022/06/15 10:03:04;;;;;;;3.03;1.40;;;;;;;41.20;21.81;98714.81;4981802;28;20480;-78
2022/06/15 10:05:39;;;;;;;3.08;1.90;;;;;;;41.14;20.04;98730.66;4986811;28;20026;-72
2022/06/15 10:08:10;;;;;;;4.35;1.30;;;;;;;40.74;21.36;98730.75;4984702;28;20121;-74
2022/06/15 10:10:43;;;;;;;5.55;1.40;;;;;;;41.10;21.46;98724.97;4987144;28;20029;-76
2022/06/15 10:13:15;;;;;;;5.00;1.55;;;;;;;41.32;19.74;98727.72;4972739;28;20027;-68
2022/06/15 10:15:40;;;;;;;2.30;1.20;;;;;;;41.50;20.14;98728.47;4978786;28;20042;-72
2022/06/15 10:18:27;;;;;;;2.55;1.20;;;;;;;41.59;19.60;98725.19;4981532;28;20027;-78
2022/06/15 10:21:14;;;;;;;6.85;1.50;;;;;;;40.25;19.02;98725.91;4982558;28;20053;-71
2022/06/15 10:23:58;;;;;;;2.80;1.50;;;;;;;40.64;21.40;98731.53;4980424;28;20488;-71
2022/06/15 10:26:42;;;;;;;2.95;1.35;;;;;;;42.11;20.52;98713.13;4983916;28;20049;-78
2022/06/15 10:29:18;;;;;;;2.30;1.25;;;;;;;41.88;20.11;98728.66;4984665;28;20599;-72
2022/06/15 10:32:08;;;;;;;2.15;1.33;;;;;;;41.73;19.73;98724.28;4981536;28;20034;-75
2022/06/15 10:34:53;;;;;;;1.67;1.30;;;;;;;41.62;20.30;98713.00;4980737;28;20535;-75
2022/06/15 10:37:29;;;;;;;4.15;1.60;;;;;;;42.06;20.34;98716.41;4977253;28;20412;-76
2022/06/15 10:39:58;;;;;;;2.40;1.45;;;;;;;42.59;20.02;98715.13;4983741;28;20096;-76
2022/06/15 10:42:29;;;;;;;2.97;1.40;;;;;;;42.33;19.45;98719.41;4986279;28;20117;-76
2022/06/15 10:45:26;;;;;;;4.15;1.30;;;;;;;41.15;20.43;98718.88;4989648;28;20030;-71
2022/06/15 10:48:00;;;;;;;2.72;1.08;;;;;;;42.08;19.68;98713.91;4984581;28;20590;-73
2022/06/15 10:50:27;;;;;;;2.55;1.40;;;;;;;40.98;19.66;98722.56;4979300;28;20030;-75
2022/06/15 10:52:55;;;;;;;;;;;;;;;39.82;21.23;98715.28;4981218;28;20156;-70
2022/06/15 11:04:17;;;;;;;4.47;1.50;;;;;;;40.03;22.65;98699.53;4978247;28;20088;-70
2022/06/15 11:06:58;;;;;;;2.30;1.30;;;;;;;40.21;20.86;98700.38;4984823;28;20034;-74
2022/06/15 11:09:31;;;;;;;4.25;1.73;;;;;;;39.19;22.39;98694.03;4980528;28;20034;-75
2022/06/15 11:12:01;;;;;;;2.17;1.30;;;;;;;39.08;22.41;98694.00;4984247;28;20022;-77
2022/06/15 11:14:29;;;;;;;2.58;1.55;;;;;;;40.34;21.83;98705.66;4987323;28;20022;-72
2022/06/15 11:19:58;;;;;;;4.40;1.40;;;;;;;41.24;21.43;98686.41;4981032;28;20129;-77
2022/06/15 11:22:27;;;;;;;4.30;1.40;;;;;;;41.46;21.16;98702.09;4980518;28;20109;-74
2022/06/15 11:25:07;;;;;;;2.85;1.50;;;;;;;41.38;22.03;98694.84;4984184;28;20042;-73
2022/06/15 11:27:39;;;;;;;3.78;1.50;;;;;;;41.75;20.55;98691.41;4986375;28;20484;-71
2022/06/15 11:30:27;;;;;;;3.58;1.30;;;;;;;42.24;20.64;98694.31;4975259;28;20045;-72
2022/06/15 11:33:11;;;;;;;4.03;1.50;;;;;;;40.88;21.00;98689.38;4979406;28;20034;-73
2022/06/15 11:35:41;;;;;;;2.10;1.27;;;;;;;41.35;20.49;98687.16;4979709;28;20508;-73
2022/06/15 11:38:20;;;;;;;4.15;1.55;;;;;;;41.76;20.36;98680.84;4981988;28;20040;-75
2022/06/15 11:40:57;;;;;;;8.48;1.50;;;;;;;39.69;21.40;98685.72;4983371;28;20034;-74
2022/06/15 11:43:28;;;;;;;3.08;1.30;;;;;;;39.72;21.83;98693.41;4984836;28;20105;-74
2022/06/15 11:46:00;;;;;;;3.85;1.17;;;;;;;39.74;22.32;98685.31;4986185;28;20457;-72
2022/06/15 11:48:59;;;;;;;3.80;1.50;;;;;;;40.78;22.37;98691.00;4986797;28;20112;-77
2022/06/15 11:51:46;;;;;;;3.17;1.30;;;;;;;41.07;21.24;98679.56;4994308;28;20034;-76
2022/06/15 11:54:27;;;;;;;2.78;1.27;;;;;;;41.77;20.64;98679.63;4988500;28;20023;-83
2022/06/15 11:57:30;;;;;;;2.60;1.13;;;;;;;40.10;21.06;98674.03;4983616;28;21984;-71
2022/06/15 12:00:21;;;;;;;3.55;1.20;;;;;;;40.99;20.35;98678.78;4985153;28;20038;-74
2022/06/15 12:03:04;;;;;;;4.13;1.33;;;;;;;41.85;20.05;98672.66;4983653;28;20089;-74